LFBE

Bergerac-Roumanière Airport

Airport
ICAO code
LFBE
IATA Code
EGC
Summary
ICAO Region
EUR
ICAO Territory
Location

, Aquitaine

Serving
Bergerac
Elevation
171 ft
Coordinates
44° 49' 31" N , 0° 31' 7" E
Metar
LFBE 181330Z AUTO 06010KT 9999 -RA FEW034/// SCT042/// OVC054/// ///CB 15/13 Q1013 TEMPO 1500 -TSRA BECMG 26005KT

Runways

Designator Length Width Surface Rops
10/28 2205 45 ASP Yes/Yes

Airport map

Aerial View

SKYbrary Partners:

Safety knowledge contributed by: